createdAt,value
2018-02-05T00:06:06.449Z,100818
2018-02-05T00:16:08.868Z,100800
2018-02-05T00:26:11.144Z,100804
2018-02-05T00:36:12.700Z,100817
2018-02-05T00:46:14.205Z,100830
2018-02-05T00:56:15.768Z,100861
2018-02-05T01:06:17.983Z,100865
2018-02-05T01:16:20.444Z,100870
2018-02-05T01:26:22.096Z,100886
2018-02-05T01:36:24.471Z,100880
2018-02-05T01:46:32.854Z,100884
2018-02-05T01:56:34.436Z,100880
2018-02-05T02:06:35.971Z,100889
2018-02-05T02:16:38.339Z,100896
2018-02-05T02:26:39.848Z,100893
2018-02-05T02:36:41.580Z,100888
2018-02-05T02:46:43.142Z,100898
2018-02-05T02:56:44.658Z,100899
2018-02-05T03:06:46.182Z,100894
2018-02-05T03:16:47.777Z,100890
2018-02-05T03:26:49.296Z,100899
2018-02-05T03:36:51.626Z,100899
2018-02-05T03:46:53.268Z,100919
2018-02-05T03:56:54.741Z,100923
2018-02-05T04:07:02.421Z,100925
2018-02-05T04:17:03.959Z,100943
2018-02-05T04:27:05.597Z,100937
2018-02-05T04:37:08.000Z,100951
2018-02-05T04:47:09.538Z,100950
2018-02-05T04:57:11.175Z,100954
2018-02-05T05:07:12.784Z,100942
2018-02-05T05:17:14.302Z,100957
2018-02-05T05:27:15.841Z,100955
2018-02-05T05:37:17.351Z,100966
2018-02-05T05:47:18.891Z,100970
2018-02-05T05:57:20.485Z,100972
2018-02-05T06:07:22.207Z,100983
2018-02-05T06:17:23.996Z,100992
2018-02-05T06:27:25.520Z,100997
2018-02-05T06:37:27.147Z,101003
2018-02-05T06:47:28.713Z,101014
2018-02-05T06:57:30.280Z,101019
2018-02-05T07:07:31.823Z,101036
2018-02-05T07:17:33.340Z,101046
2018-02-05T07:27:42.696Z,101046
2018-02-05T07:37:44.177Z,101049
2018-02-05T07:47:45.704Z,101053
2018-02-05T07:57:47.249Z,101052
2018-02-05T08:07:49.720Z,101062
2018-02-05T08:17:51.226Z,101061
2018-02-05T08:27:52.780Z,101077
2018-02-05T08:37:54.290Z,101068
2018-02-05T08:47:56.244Z,101071
2018-02-05T08:57:57.780Z,101054
2018-02-05T09:07:59.304Z,101046
2018-02-05T09:18:00.842Z,101042
2018-02-05T09:28:02.452Z,101048
2018-02-05T09:38:03.964Z,101049
2018-02-05T09:48:06.203Z,101044
2018-02-05T09:58:07.888Z,101064
2018-02-05T10:08:10.231Z,101065
2018-02-05T10:18:11.844Z,101078
2018-02-05T10:28:13.514Z,101059
2018-02-05T10:38:15.021Z,101053
2018-02-05T10:48:16.564Z,101047
2018-02-05T10:58:18.099Z,101029
2018-02-05T11:08:20.414Z,101014
2018-02-05T11:18:22.742Z,100995
2018-02-05T11:28:25.043Z,100998
2018-02-05T11:38:26.644Z,100970
2018-02-05T11:48:28.932Z,100976
2018-02-05T11:58:30.445Z,100960
2018-02-05T12:08:32.038Z,100948
2018-02-05T12:18:33.655Z,100945
2018-02-05T12:28:35.372Z,100914
2018-02-05T12:38:37.679Z,100912
2018-02-05T12:48:39.282Z,100902
2018-02-05T12:58:41.672Z,100875
2018-02-05T13:08:43.413Z,100875
2018-02-05T13:18:44.893Z,100874
2018-02-05T13:28:46.524Z,100874
2018-02-05T13:38:48.167Z,100863
2018-02-05T13:48:49.717Z,100871
2018-02-05T13:58:52.157Z,100846
2018-02-05T14:08:53.732Z,100828
2018-02-05T14:19:00.835Z,100825
2018-02-05T14:29:02.385Z,100805
2018-02-05T14:39:03.933Z,100813
2018-02-05T14:49:05.473Z,100815
2018-02-05T14:59:07.088Z,100804
2018-02-05T15:09:08.804Z,100792
2018-02-05T15:19:10.388Z,100779
2018-02-05T15:29:11.919Z,100781
2018-02-05T15:39:13.446Z,100768
2018-02-05T15:49:15.052Z,100767
2018-02-05T15:59:17.344Z,100779
2018-02-05T16:09:18.861Z,100759
2018-02-05T16:19:20.648Z,100761
2018-02-05T16:29:22.252Z,100755
2018-02-05T16:39:23.838Z,100764
2018-02-05T16:49:25.400Z,100762
2018-02-05T16:59:27.221Z,100762
2018-02-05T17:09:28.781Z,100753
2018-02-05T17:19:31.157Z,100754
2018-02-05T17:29:33.666Z,100792
2018-02-05T17:39:35.369Z,100799
2018-02-05T17:49:36.966Z,100805
2018-02-05T17:59:38.768Z,100807
2018-02-05T18:09:40.408Z,100804
2018-02-05T18:19:42.089Z,100800
2018-02-05T18:29:43.735Z,100791
2018-02-05T18:39:46.053Z,100780
2018-02-05T18:49:48.386Z,100777
2018-02-05T18:59:49.938Z,100782
2018-02-05T19:09:51.586Z,100775
2018-02-05T19:19:53.229Z,100780
2018-02-05T19:29:54.749Z,100773
2018-02-05T19:39:56.341Z,100769
2018-02-05T19:49:57.868Z,100772
2018-02-05T20:00:00.061Z,100760
2018-02-05T20:10:01.679Z,100769
2018-02-05T20:20:04.173Z,100762
2018-02-05T20:30:05.845Z,100765
2018-02-05T20:40:07.480Z,100758
2018-02-05T20:50:09.293Z,100737
2018-02-05T21:00:10.882Z,100738
2018-02-05T21:10:12.462Z,100724
2018-02-05T21:20:14.070Z,100714
2018-02-05T21:30:15.705Z,100697
2018-02-05T21:40:17.988Z,100703
2018-02-05T21:50:19.587Z,100686
2018-02-05T22:00:21.132Z,100663
2018-02-05T22:10:23.384Z,100663
2018-02-05T22:20:25.058Z,100661
2018-02-05T22:30:26.648Z,100636
2018-02-05T22:40:28.198Z,100630
2018-02-05T22:50:29.736Z,100618
2018-02-05T23:00:32.034Z,100603
2018-02-05T23:10:33.554Z,100619
2018-02-05T23:20:35.870Z,100592
2018-02-05T23:30:38.165Z,100570
2018-02-05T23:40:39.703Z,100576
2018-02-05T23:50:41.253Z,100555
